createdAt,value
2022-10-11T00:01:41.843Z,77427.34
2022-10-11T00:04:08.881Z,77431.31
2022-10-11T00:06:37.971Z,77439.25
2022-10-11T00:09:05.516Z,77451.19
2022-10-11T00:11:31.978Z,77467.09
2022-10-11T00:13:59.192Z,77479.03
2022-10-11T00:16:25.913Z,77488.97
2022-10-11T00:18:52.348Z,77496.91
2022-10-11T00:21:20.653Z,77508.84
2022-10-11T00:23:47.573Z,77508.84
2022-10-11T00:26:14.455Z,77528.72
2022-10-11T00:28:41.617Z,77532.69
2022-10-11T00:31:10.547Z,77544.63
2022-10-11T00:33:37.115Z,77554.56
2022-10-11T00:36:04.654Z,77584.38
2022-10-11T00:38:32.051Z,77588.34
2022-10-11T00:41:00.022Z,77592.31
2022-10-11T00:43:29.196Z,77608.22
2022-10-11T00:45:55.615Z,77616.16
2022-10-11T00:48:27.730Z,77634.06
2022-10-11T00:50:57.565Z,77644.00
2022-10-11T00:53:25.367Z,77647.97
2022-10-11T00:55:57.680Z,77661.88
2022-10-11T00:58:24.577Z,77677.78
2022-10-11T01:00:51.304Z,77689.72
2022-10-11T01:03:20.043Z,77705.63
2022-10-11T01:05:47.283Z,77721.53
2022-10-11T01:08:13.883Z,77729.47
2022-10-11T01:10:40.671Z,77739.41
2022-10-11T01:13:10.304Z,77741.41
2022-10-11T01:15:48.266Z,77751.34
2022-10-11T01:18:18.713Z,77773.22
2022-10-11T01:21:09.859Z,77771.22
2022-10-11T01:24:19.935Z,77785.13
2022-10-11T01:26:46.376Z,77793.09
2022-10-11T01:29:31.022Z,77803.03
2022-10-11T01:32:22.960Z,77814.97
2022-10-11T01:34:58.616Z,77822.91
2022-10-11T01:37:41.228Z,77826.88
2022-10-11T01:40:50.147Z,77842.78
2022-10-11T01:43:19.151Z,77854.72
2022-10-11T01:45:50.338Z,77854.72
2022-10-11T01:48:16.971Z,77868.63
2022-10-11T01:50:45.208Z,77894.47
2022-10-11T01:53:49.517Z,77870.63
2022-10-11T01:56:43.782Z,77900.44
2022-10-11T01:59:28.413Z,77920.31
2022-10-11T02:02:14.272Z,77938.22
2022-10-11T02:04:52.549Z,77948.16
2022-10-11T02:07:34.388Z,77960.06
2022-10-11T02:10:23.031Z,77974.00
2022-10-11T02:13:00.964Z,77975.97
2022-10-11T02:15:30.600Z,77987.91
2022-10-11T02:18:00.707Z,77991.88
2022-10-11T02:20:30.546Z,77989.91
2022-10-11T02:23:03.461Z,77999.84
2022-10-11T02:25:35.000Z,78007.78
2022-10-11T02:28:05.593Z,78009.78
2022-10-11T02:30:33.768Z,78025.69
2022-10-11T02:33:03.967Z,78031.66
2022-10-11T02:35:36.851Z,78013.75
2022-10-11T02:38:12.809Z,78009.78
2022-10-11T02:40:45.044Z,78011.75
2022-10-11T02:43:38.392Z,78007.78
2022-10-11T02:46:07.915Z,78029.66
2022-10-11T02:48:36.204Z,78039.59
2022-10-11T02:51:04.050Z,78041.59
2022-10-11T02:53:30.994Z,78049.53
2022-10-11T02:55:57.514Z,78053.50
2022-10-11T02:58:24.675Z,78059.47
2022-10-11T03:00:51.168Z,78079.34
2022-10-11T03:03:17.629Z,78101.22
2022-10-11T03:05:44.152Z,78101.22
2022-10-11T03:08:13.368Z,78109.19
2022-10-11T03:10:41.945Z,78125.09
2022-10-11T03:13:08.510Z,78131.03
2022-10-11T03:15:35.406Z,78125.09
2022-10-11T03:18:01.968Z,78133.03
2022-10-11T03:20:28.431Z,78139.00
2022-10-11T03:22:55.778Z,78152.91
2022-10-11T03:25:22.220Z,78150.94
2022-10-11T03:27:48.919Z,78154.91
2022-10-11T03:30:18.349Z,78164.84
2022-10-11T03:32:45.414Z,78154.91
2022-10-11T03:35:13.296Z,78142.97
2022-10-11T03:37:39.824Z,78142.97
2022-10-11T03:40:08.529Z,78156.91
2022-10-11T03:42:35.783Z,78172.78
2022-10-11T03:45:05.014Z,78176.78
2022-10-11T03:47:32.195Z,78164.84
2022-10-11T03:49:58.710Z,78182.75
2022-10-11T03:52:25.327Z,78184.72
2022-10-11T03:54:52.189Z,78190.69
2022-10-11T03:57:19.423Z,78200.63
2022-10-11T03:59:45.940Z,78202.63
2022-10-11T04:02:12.485Z,78208.59
2022-10-11T04:04:39.075Z,78196.66
2022-10-11T04:07:05.709Z,78230.44
2022-10-11T04:09:32.213Z,78234.44
2022-10-11T04:11:58.778Z,78244.38
2022-10-11T04:14:25.307Z,78250.34
2022-10-11T04:16:51.938Z,78244.38
2022-10-11T04:19:18.415Z,78260.28
2022-10-11T04:21:44.963Z,78270.22
2022-10-11T04:24:12.342Z,78278.16
2022-10-11T04:26:38.832Z,78266.25
2022-10-11T04:29:05.805Z,78270.22
2022-10-11T04:31:32.376Z,78286.13
2022-10-11T04:33:59.099Z,78254.31
2022-10-11T04:36:25.712Z,78282.16
2022-10-11T04:38:52.276Z,78288.09
2022-10-11T04:41:18.720Z,78300.03
2022-10-11T04:43:45.216Z,78308.00
2022-10-11T04:46:12.017Z,78302.03
2022-10-11T04:48:38.678Z,78325.88
2022-10-11T04:51:05.470Z,78329.84
2022-10-11T04:53:34.526Z,78335.81
2022-10-11T04:56:04.365Z,78337.81
2022-10-11T04:58:32.825Z,78313.94
2022-10-11T05:00:59.793Z,78315.94
2022-10-11T05:03:26.891Z,78315.94
2022-10-11T05:05:53.388Z,78317.94
2022-10-11T05:08:20.832Z,78315.94
2022-10-11T05:11:05.268Z,78323.91
2022-10-11T05:13:33.760Z,78306.00
2022-10-11T05:16:01.192Z,78327.88
2022-10-11T05:18:28.379Z,78341.78
2022-10-11T05:21:09.167Z,78335.81
2022-10-11T05:23:37.047Z,78335.81
2022-10-11T05:26:04.446Z,78345.75
2022-10-11T05:28:31.967Z,78343.78
2022-10-11T05:30:58.859Z,78339.81
2022-10-11T05:33:25.670Z,78339.81
2022-10-11T05:35:52.319Z,78353.72
2022-10-11T05:38:19.236Z,78341.78
2022-10-11T05:40:45.960Z,78359.69
2022-10-11T05:43:15.124Z,78369.63
2022-10-11T05:45:46.481Z,78357.69
2022-10-11T05:48:13.071Z,78363.66
2022-10-11T05:50:40.138Z,78359.69
2022-10-11T05:53:07.148Z,78369.63
2022-10-11T05:55:42.879Z,78365.66
2022-10-11T05:58:14.712Z,78367.63
2022-10-11T06:00:45.131Z,78363.66
2022-10-11T06:03:15.141Z,78347.75
2022-10-11T06:05:41.921Z,78357.69
2022-10-11T06:08:09.948Z,78355.72
2022-10-11T06:10:37.505Z,78351.72
2022-10-11T06:13:13.759Z,78349.75
2022-10-11T06:15:40.596Z,78357.69
2022-10-11T06:18:07.120Z,78349.75
2022-10-11T06:20:33.656Z,78341.78
2022-10-11T06:23:00.423Z,78343.78
2022-10-11T06:25:26.862Z,78347.75
2022-10-11T06:27:54.309Z,78331.84
2022-10-11T06:30:20.778Z,78339.81
2022-10-11T06:32:47.245Z,78325.88
2022-10-11T06:35:13.794Z,78339.81
2022-10-11T06:37:40.284Z,78337.81
2022-10-11T06:40:07.340Z,78331.84
2022-10-11T06:42:33.802Z,78319.91
2022-10-11T06:45:00.401Z,78317.94
2022-10-11T06:47:26.844Z,78308.00
2022-10-11T06:49:53.316Z,78308.00
2022-10-11T06:52:20.116Z,78311.97
2022-10-11T06:54:46.670Z,78304.00
2022-10-11T06:57:13.269Z,78302.03
2022-10-11T06:59:39.804Z,78286.13
2022-10-11T07:02:06.895Z,78288.09
2022-10-11T07:04:34.068Z,78292.09
2022-10-11T07:07:00.755Z,78280.16
2022-10-11T07:09:27.253Z,78274.19
2022-10-11T07:11:53.811Z,78266.25
2022-10-11T07:14:20.347Z,78264.25
2022-10-11T07:16:46.862Z,78266.25
2022-10-11T07:19:13.381Z,78252.31
2022-10-11T07:21:40.076Z,78252.31
2022-10-11T07:24:06.805Z,78240.41
2022-10-11T07:26:38.289Z,78240.41
2022-10-11T07:29:07.025Z,78232.44
2022-10-11T07:31:33.706Z,78216.53
2022-10-11T07:34:00.200Z,78214.53
2022-10-11T07:36:26.937Z,78206.59
2022-10-11T07:38:53.678Z,78196.66
2022-10-11T07:41:20.679Z,78176.78
2022-10-11T07:43:51.083Z,78180.75
2022-10-11T07:46:18.829Z,78168.81
2022-10-11T07:48:45.595Z,78170.81
2022-10-11T07:51:14.432Z,78168.81
2022-10-11T07:53:55.865Z,78160.88
2022-10-11T07:56:30.194Z,78156.91
2022-10-11T07:59:06.361Z,78133.03
2022-10-11T08:01:33.343Z,78158.88
2022-10-11T08:04:00.120Z,78144.97
2022-10-11T08:06:31.667Z,78131.03
2022-10-11T08:09:00.488Z,78144.97
2022-10-11T08:11:32.664Z,78146.94
2022-10-11T08:20:33.818Z,78113.16
2022-10-11T08:23:01.081Z,78093.28
2022-10-11T08:25:27.640Z,78075.38
2022-10-11T08:28:05.044Z,78043.56
2022-10-11T08:30:31.725Z,78037.59
2022-10-11T08:32:58.414Z,78027.66
2022-10-11T08:35:25.138Z,78013.75
2022-10-11T08:37:51.637Z,78029.66
2022-10-11T08:40:21.011Z,78011.75
2022-10-11T08:43:23.062Z,78005.81
2022-10-11T08:45:53.649Z,77975.97
2022-10-11T08:48:28.088Z,77970.00
2022-10-11T08:50:54.959Z,77962.06
2022-10-11T08:53:29.889Z,77938.22
2022-10-11T08:55:56.588Z,77932.25
2022-10-11T08:58:32.737Z,77924.28
2022-10-11T09:00:59.686Z,77932.25
2022-10-11T09:03:55.627Z,77928.28
2022-10-11T09:06:44.011Z,77906.41
2022-10-11T09:09:29.384Z,77896.47
2022-10-11T09:12:14.098Z,77878.56
2022-10-11T09:15:12.884Z,77862.66
2022-10-11T09:18:00.417Z,77840.78
2022-10-11T09:20:48.888Z,77822.91
2022-10-11T09:23:41.746Z,77807.00
2022-10-11T09:26:39.872Z,77799.06
2022-10-11T09:29:28.322Z,77777.19
2022-10-11T09:31:57.311Z,77757.31
2022-10-11T09:34:34.298Z,77741.41
2022-10-11T09:37:16.619Z,77751.34
2022-10-11T09:39:57.311Z,77741.41
2022-10-11T09:42:23.928Z,77717.56
2022-10-11T09:44:52.036Z,77695.69
2022-10-11T09:47:27.264Z,77689.72
2022-10-11T09:50:14.251Z,77669.84
2022-10-11T09:52:57.527Z,77691.72
2022-10-11T09:55:36.325Z,77699.66
2022-10-11T09:58:04.870Z,77689.72
2022-10-11T10:00:33.930Z,77703.63
2022-10-11T10:03:03.646Z,77687.72
2022-10-11T10:05:31.265Z,77667.84
2022-10-11T10:08:04.304Z,77649.97
2022-10-11T10:10:44.085Z,77628.09
2022-10-11T10:13:23.433Z,77612.19
2022-10-11T10:15:53.657Z,77606.22
2022-10-11T10:18:42.345Z,77600.28
2022-10-11T10:21:14.345Z,77606.22
2022-10-11T10:23:42.788Z,77636.06
2022-10-11T10:26:16.625Z,77646.00
2022-10-11T10:29:09.636Z,77647.97
2022-10-11T10:32:01.913Z,77636.06
2022-10-11T10:34:35.365Z,77608.22
2022-10-11T10:37:32.294Z,77626.13
2022-10-11T10:40:08.425Z,77612.19
2022-10-11T10:42:35.376Z,77582.38
2022-10-11T10:45:02.664Z,77544.63
2022-10-11T10:47:47.826Z,77534.69
2022-10-11T10:50:23.674Z,77512.81
2022-10-11T10:53:14.915Z,77486.97
2022-10-11T10:55:58.279Z,77469.09
2022-10-11T10:58:46.556Z,77457.16
2022-10-11T11:01:23.635Z,77421.38
2022-10-11T11:04:18.367Z,77453.19
2022-10-11T11:06:50.872Z,77459.13
2022-10-11T11:09:49.693Z,77427.34
2022-10-11T11:12:37.447Z,77423.38
2022-10-11T11:15:16.635Z,77393.56
2022-10-11T11:18:04.680Z,77389.56
2022-10-11T11:20:43.476Z,77353.78
2022-10-11T11:23:27.423Z,77349.81
2022-10-11T11:26:29.203Z,77329.94
2022-10-11T11:29:17.196Z,77282.25
2022-10-11T11:32:02.999Z,77306.09
2022-10-11T11:34:33.949Z,77314.03
2022-10-11T11:37:04.776Z,77341.88
2022-10-11T11:39:54.340Z,77395.53
2022-10-11T11:42:31.005Z,77397.53
2022-10-11T11:45:05.470Z,77393.56
2022-10-11T11:47:44.785Z,77415.41
2022-10-11T11:50:22.658Z,77437.28
2022-10-11T11:52:57.972Z,77451.19
2022-10-11T11:55:33.761Z,77459.13
2022-10-11T11:58:41.647Z,77421.38
2022-10-11T12:01:31.950Z,77411.44
2022-10-11T12:04:09.206Z,77431.31
2022-10-11T12:06:47.737Z,77435.28
2022-10-11T12:09:19.053Z,77471.06
2022-10-11T12:11:58.593Z,77496.91
2022-10-11T12:14:33.919Z,77488.97
2022-10-11T12:17:16.628Z,77459.13
2022-10-11T12:20:12.315Z,77486.97
2022-10-11T12:23:00.569Z,77465.09
2022-10-11T12:25:27.082Z,77465.09
2022-10-11T12:27:55.731Z,77461.13
2022-10-11T12:30:47.167Z,77467.09
2022-10-11T12:33:33.612Z,77477.03
2022-10-11T12:36:23.175Z,77471.06
2022-10-11T12:39:18.219Z,77500.88
2022-10-11T12:41:47.769Z,77544.63
2022-10-11T12:44:26.465Z,77532.69
2022-10-11T12:46:57.642Z,77542.63
2022-10-11T12:49:53.458Z,77562.50
2022-10-11T12:52:34.384Z,77558.53
2022-10-11T12:55:22.910Z,77550.56
2022-10-11T12:58:18.442Z,77562.50
2022-10-11T13:00:50.994Z,77574.44
2022-10-11T13:03:32.472Z,77580.41
2022-10-11T13:06:01.864Z,77580.41
2022-10-11T13:08:36.507Z,77570.44
2022-10-11T13:11:10.173Z,77556.53
2022-10-11T13:13:52.045Z,77548.59
2022-10-11T13:16:26.521Z,77536.66
2022-10-11T13:18:59.839Z,77530.69
2022-10-11T13:21:32.989Z,77512.81
2022-10-11T13:24:10.224Z,77512.81
2022-10-11T13:26:37.592Z,77494.91
2022-10-11T13:29:16.110Z,77465.09
2022-10-11T13:31:45.952Z,77461.13
2022-10-11T13:34:13.271Z,77463.13
2022-10-11T13:36:40.190Z,77465.09
2022-10-11T13:39:07.497Z,77451.19
2022-10-11T13:41:35.259Z,77469.09
2022-10-11T13:44:03.011Z,77453.19
2022-10-11T13:46:31.186Z,77439.25
2022-10-11T13:49:29.325Z,77425.34
2022-10-11T13:52:02.338Z,77403.50
2022-10-11T13:54:54.615Z,77399.50
2022-10-11T13:57:32.822Z,77385.59
2022-10-11T14:00:07.439Z,77409.44
2022-10-11T14:02:34.085Z,77381.63
2022-10-11T14:05:00.690Z,77375.66
2022-10-11T14:07:34.688Z,77381.63
2022-10-11T14:10:01.232Z,77403.50
2022-10-11T14:12:33.148Z,77419.38
2022-10-11T14:15:01.667Z,77443.25
2022-10-11T14:17:40.063Z,77461.13
2022-10-11T14:20:22.111Z,77451.19
2022-10-11T14:22:52.836Z,77475.03
2022-10-11T14:25:20.952Z,77490.94
2022-10-11T14:27:48.502Z,77496.91
2022-10-11T14:30:26.411Z,77506.84
2022-10-11T14:32:56.385Z,77506.84
2022-10-11T14:35:25.691Z,77512.81
2022-10-11T14:37:54.161Z,77512.81
2022-10-11T14:40:25.014Z,77530.69
2022-10-11T14:42:52.081Z,77520.75
2022-10-11T14:45:19.269Z,77516.78
2022-10-11T14:47:45.761Z,77534.69
2022-10-11T14:50:34.866Z,77536.66
2022-10-11T14:53:01.537Z,77526.72
2022-10-11T14:55:29.626Z,77538.66
2022-10-11T14:57:56.621Z,77540.63
2022-10-11T15:00:25.519Z,77548.59
2022-10-11T15:02:52.942Z,77534.69
2022-10-11T15:05:20.709Z,77504.84
2022-10-11T15:07:47.956Z,77502.88
2022-10-11T15:10:27.400Z,77524.72
2022-10-11T15:12:55.927Z,77526.72
2022-10-11T15:15:25.496Z,77526.72
2022-10-11T15:17:57.683Z,77552.56
2022-10-11T15:20:29.619Z,77578.41
2022-10-11T15:22:56.311Z,77576.41
2022-10-11T15:25:23.599Z,77602.25
2022-10-11T15:27:50.982Z,77618.16
2022-10-11T15:30:30.283Z,77630.09
2022-10-11T15:32:57.306Z,77642.00
2022-10-11T15:35:24.882Z,77651.94
2022-10-11T15:37:58.111Z,77655.94
2022-10-11T15:40:30.608Z,77667.84
2022-10-11T15:42:57.423Z,77687.72
2022-10-11T15:45:24.408Z,77701.66
2022-10-11T15:47:51.115Z,77723.50
2022-10-11T15:50:34.913Z,77735.44
2022-10-11T15:53:15.706Z,77761.28
2022-10-11T15:55:54.538Z,77779.16
2022-10-11T15:58:23.728Z,77793.09
2022-10-11T16:01:49.770Z,77812.97
2022-10-11T16:04:16.281Z,77834.84
2022-10-11T16:06:51.869Z,77846.75
2022-10-11T16:09:21.224Z,77862.66
2022-10-11T16:11:47.692Z,77880.56
2022-10-11T16:14:14.152Z,77896.47
2022-10-11T16:16:40.620Z,77904.41
2022-10-11T16:19:07.200Z,77910.38
2022-10-11T16:21:33.930Z,77926.28
2022-10-11T16:24:00.452Z,77930.25
2022-10-11T16:26:27.068Z,77934.22
2022-10-11T16:28:53.752Z,77948.16
2022-10-11T16:31:21.095Z,77956.09
2022-10-11T16:33:48.245Z,77977.97
2022-10-11T16:36:32.526Z,77995.84
2022-10-11T16:39:03.309Z,78003.81
2022-10-11T16:41:29.850Z,78021.69
2022-10-11T16:43:56.640Z,78035.63
2022-10-11T16:46:23.843Z,78043.56
2022-10-11T16:48:50.761Z,78049.53
2022-10-11T16:51:17.262Z,78065.44
2022-10-11T16:53:43.772Z,78075.38
2022-10-11T16:56:12.092Z,78089.28
2022-10-11T16:58:38.837Z,78095.25
2022-10-11T17:01:10.346Z,78105.19
2022-10-11T17:03:37.778Z,78113.16
2022-10-11T17:06:05.543Z,78117.13
2022-10-11T17:08:32.177Z,78125.09
2022-10-11T17:10:59.086Z,78139.00
2022-10-11T17:13:25.654Z,78152.91
2022-10-11T17:15:52.488Z,78158.88
2022-10-11T17:18:18.986Z,78156.91
2022-10-11T17:20:45.625Z,78176.78
2022-10-11T17:23:12.439Z,78178.75
2022-10-11T17:25:47.125Z,78194.66
2022-10-11T17:28:13.817Z,78198.66
2022-10-11T17:30:43.328Z,78204.59
2022-10-11T17:33:09.927Z,78214.53
2022-10-11T17:35:36.571Z,78224.50
2022-10-11T17:38:06.199Z,78228.47
2022-10-11T17:40:33.101Z,78248.34
2022-10-11T17:42:59.552Z,78258.28
2022-10-11T17:45:25.994Z,78274.19
2022-10-11T17:47:52.533Z,78278.16
2022-10-11T17:50:19.120Z,78288.09
2022-10-11T17:52:45.869Z,78288.09
2022-10-11T17:55:13.417Z,78292.09
2022-10-11T17:57:39.889Z,78296.06
2022-10-11T18:00:07.335Z,78302.03
2022-10-11T18:02:33.956Z,78294.06
2022-10-11T18:05:00.427Z,78302.03
2022-10-11T18:07:28.002Z,78308.00
2022-10-11T18:09:54.520Z,78319.91
2022-10-11T18:12:21.130Z,78321.91
2022-10-11T18:14:47.816Z,78321.91
2022-10-11T18:17:14.482Z,78333.84
2022-10-11T18:19:41.087Z,78341.78
2022-10-11T18:22:07.916Z,78339.81
2022-10-11T18:24:34.642Z,78353.72
2022-10-11T18:27:01.225Z,78367.63
2022-10-11T18:29:27.976Z,78359.69
2022-10-11T18:31:54.456Z,78367.63
2022-10-11T18:34:20.985Z,78375.59
2022-10-11T18:36:47.529Z,78367.63
2022-10-11T18:39:15.041Z,78361.66
2022-10-11T18:41:54.048Z,78371.63
2022-10-11T18:44:20.939Z,78385.53
2022-10-11T18:46:48.348Z,78381.56
2022-10-11T18:49:15.041Z,78393.47
2022-10-11T18:51:42.558Z,78393.47
2022-10-11T18:54:13.946Z,78403.44
2022-10-11T18:56:43.729Z,78403.44
2022-10-11T18:59:10.639Z,78405.41
2022-10-11T19:01:40.069Z,78413.38
2022-10-11T19:04:09.120Z,78415.34
2022-10-11T19:06:38.844Z,78431.25
2022-10-11T19:09:08.652Z,78431.25
2022-10-11T19:11:35.327Z,78423.31
2022-10-11T19:14:07.965Z,78423.31
2022-10-11T19:16:40.175Z,78413.38
2022-10-11T19:19:09.435Z,78413.38
2022-10-11T19:21:36.476Z,78421.31
2022-10-11T19:24:03.272Z,78419.31
2022-10-11T19:26:33.482Z,78425.28
2022-10-11T19:29:07.596Z,78441.19
2022-10-11T19:31:36.041Z,78461.09
2022-10-11T19:34:03.043Z,78455.13
2022-10-11T19:36:33.949Z,78461.09
2022-10-11T19:39:03.047Z,78469.03
2022-10-11T19:41:30.076Z,78467.06
2022-10-11T19:43:58.228Z,78469.03
2022-10-11T19:46:50.457Z,78469.03
2022-10-11T19:49:14.052Z,78473.00
2022-10-11T19:51:40.531Z,78477.00
2022-10-11T19:54:10.193Z,78478.97
2022-10-11T19:56:37.186Z,78475.00
2022-10-11T19:59:06.429Z,78486.94
2022-10-11T20:01:34.111Z,78482.94
2022-10-11T20:04:03.959Z,78478.97
2022-10-11T20:06:37.196Z,78482.94
2022-10-11T20:09:27.845Z,78502.84
2022-10-11T20:11:51.471Z,78475.00
2022-10-11T20:14:18.108Z,78484.94
2022-10-11T20:16:44.560Z,78492.91
2022-10-11T20:19:11.113Z,78500.84
2022-10-11T20:21:38.008Z,78502.84
2022-10-11T20:24:04.867Z,78498.88
2022-10-11T20:26:31.691Z,78498.88
2022-10-11T20:28:58.405Z,78508.81
2022-10-11T20:31:26.579Z,78538.63
2022-10-11T20:33:57.743Z,78544.59
2022-10-11T20:36:26.901Z,78560.50
2022-10-11T20:38:53.423Z,78562.50
2022-10-11T20:41:23.474Z,78554.53
2022-10-11T20:43:53.487Z,78562.50
2022-10-11T20:46:25.580Z,78566.47
2022-10-11T20:49:01.288Z,78568.44
2022-10-11T20:51:29.033Z,78574.41
2022-10-11T20:53:56.509Z,78568.44
2022-10-11T20:56:23.581Z,78554.53
2022-10-11T20:58:52.494Z,78550.56
2022-10-11T21:01:21.837Z,78572.44
2022-10-11T21:03:48.549Z,78582.38
2022-10-11T21:06:15.074Z,78586.34
2022-10-11T21:08:41.701Z,78594.31
2022-10-11T21:11:08.924Z,78594.31
2022-10-11T21:13:35.675Z,78602.25
2022-10-11T21:16:08.228Z,78602.25
2022-10-11T21:18:34.744Z,78616.16
2022-10-11T21:21:06.363Z,78618.16
2022-10-11T21:23:32.892Z,78604.25
2022-10-11T21:26:07.200Z,78600.25
2022-10-11T21:28:33.968Z,78614.19
2022-10-11T21:31:12.036Z,78618.16
2022-10-11T21:33:39.869Z,78626.13
2022-10-11T21:36:08.803Z,78626.13
2022-10-11T21:38:36.284Z,78634.06
2022-10-11T21:41:04.814Z,78634.06
2022-10-11T21:43:31.547Z,78646.00
2022-10-11T21:45:58.077Z,78636.06
2022-10-11T21:48:24.516Z,78640.03
2022-10-11T21:50:55.159Z,78632.06
2022-10-11T21:53:21.661Z,78626.13
2022-10-11T21:55:48.502Z,78616.16
2022-10-11T21:58:14.955Z,78610.22
2022-10-11T22:00:41.424Z,78632.06
2022-10-11T22:03:08.263Z,78646.00
2022-10-11T22:05:34.857Z,78655.94
2022-10-11T22:08:01.565Z,78663.91
2022-10-11T22:10:27.987Z,78663.91
2022-10-11T22:12:54.457Z,78665.88
2022-10-11T22:15:20.876Z,78665.88
2022-10-11T22:17:47.376Z,78665.88
2022-10-11T22:20:13.859Z,78649.97
2022-10-11T22:22:40.327Z,78651.97
2022-10-11T22:25:07.270Z,78659.91
2022-10-11T22:27:33.703Z,78657.94
2022-10-11T22:30:00.197Z,78646.00
2022-10-11T22:32:26.630Z,78649.97
2022-10-11T22:34:53.056Z,78649.97
2022-10-11T22:37:19.544Z,78651.97
2022-10-11T22:39:45.993Z,78661.91
2022-10-11T22:42:12.461Z,78667.88
2022-10-11T22:44:38.983Z,78667.88
2022-10-11T22:47:05.697Z,78665.88
2022-10-11T22:49:32.216Z,78661.91
2022-10-11T22:51:58.763Z,78663.91
2022-10-11T22:54:25.310Z,78665.88
2022-10-11T22:56:51.871Z,78663.91
2022-10-11T22:59:18.399Z,78675.81
2022-10-11T23:01:44.988Z,78677.81
2022-10-11T23:04:11.455Z,78677.81
2022-10-11T23:06:37.937Z,78677.81
2022-10-11T23:09:04.440Z,78693.72
2022-10-11T23:11:30.890Z,78691.72
2022-10-11T23:13:57.413Z,78689.75
2022-10-11T23:16:23.938Z,78689.75
2022-10-11T23:18:53.280Z,78677.81
2022-10-11T23:21:20.147Z,78697.69
2022-10-11T23:23:47.027Z,78693.72
2022-10-11T23:26:16.905Z,78695.72
2022-10-11T23:28:43.748Z,78709.63
2022-10-11T23:31:17.949Z,78705.66
2022-10-11T23:33:45.717Z,78703.66
2022-10-11T23:36:20.984Z,78717.59
2022-10-11T23:39:05.749Z,78711.63
2022-10-11T23:41:32.278Z,78715.59
2022-10-11T23:43:59.074Z,78725.53
2022-10-11T23:46:25.750Z,78723.53
2022-10-11T23:48:52.349Z,78741.44
2022-10-11T23:51:18.972Z,78745.41
2022-10-11T23:53:45.476Z,78751.38
2022-10-11T23:56:12.299Z,78745.41
2022-10-11T23:58:38.884Z,78755.34
